createdAt,value
2018-03-02T00:01:59.176Z,67.20
2018-03-02T00:04:26.462Z,67.70
2018-03-02T00:06:52.993Z,67.60
2018-03-02T00:09:19.569Z,68.00
2018-03-02T00:11:46.065Z,67.30
2018-03-02T00:14:12.579Z,67.30
2018-03-02T00:16:39.174Z,67.50
2018-03-02T00:19:05.668Z,67.30
2018-03-02T00:21:32.170Z,67.50
2018-03-02T00:23:58.668Z,67.40
2018-03-02T00:26:25.186Z,67.50
2018-03-02T00:28:51.700Z,67.70
2018-03-02T00:31:18.214Z,68.10
2018-03-02T00:33:45.511Z,67.20
2018-03-02T00:36:11.997Z,67.20
2018-03-02T00:38:38.470Z,67.40
2018-03-02T00:41:05.018Z,66.80
2018-03-02T00:43:31.519Z,67.00
2018-03-02T00:45:58.119Z,66.90
2018-03-02T00:48:24.621Z,66.60
2018-03-02T00:50:51.167Z,66.70
2018-03-02T00:53:17.649Z,66.20
2018-03-02T00:55:44.892Z,66.50
2018-03-02T00:58:11.455Z,66.30
2018-03-02T01:00:37.969Z,66.30
2018-03-02T01:03:04.493Z,66.20
2018-03-02T01:05:31.000Z,66.20
2018-03-02T01:07:57.530Z,66.60
2018-03-02T01:10:24.029Z,66.50
2018-03-02T01:12:51.284Z,66.90
2018-03-02T01:15:17.789Z,66.70
2018-03-02T01:17:45.831Z,66.60
2018-03-02T01:20:12.306Z,66.50
2018-03-02T01:22:38.788Z,66.70
2018-03-02T01:25:05.284Z,66.60
2018-03-02T01:27:32.509Z,66.30
2018-03-02T01:29:59.083Z,66.30
2018-03-02T01:32:25.584Z,66.20
2018-03-02T01:34:52.058Z,66.10
2018-03-02T01:37:18.554Z,66.70
2018-03-02T01:39:45.069Z,67.00
2018-03-02T01:42:11.620Z,66.60
2018-03-02T01:44:38.130Z,67.60
2018-03-02T01:47:04.621Z,66.30
2018-03-02T01:49:31.954Z,66.20
2018-03-02T01:51:58.589Z,66.20
2018-03-02T01:54:25.191Z,66.20
2018-03-02T01:56:51.690Z,66.20
2018-03-02T01:59:18.183Z,66.30
2018-03-02T02:01:45.391Z,66.90
2018-03-02T02:04:11.884Z,66.80
2018-03-02T02:06:38.398Z,67.20
2018-03-02T02:09:05.082Z,67.50
2018-03-02T02:11:32.359Z,67.30
2018-03-02T02:13:58.852Z,67.20
2018-03-02T02:16:25.334Z,67.20
2018-03-02T02:18:51.867Z,67.30
2018-03-02T02:21:18.351Z,67.60
2018-03-02T02:23:44.839Z,67.50
2018-03-02T02:26:11.346Z,67.60
2018-03-02T02:28:37.862Z,67.70
2018-03-02T02:31:04.388Z,67.80
2018-03-02T02:33:30.905Z,67.50
2018-03-02T02:35:57.383Z,67.30
2018-03-02T02:38:23.938Z,67.50
2018-03-02T02:40:50.558Z,66.90
2018-03-02T02:43:17.836Z,67.60
2018-03-02T02:45:44.332Z,67.60
2018-03-02T02:48:10.854Z,67.70
2018-03-02T02:50:37.375Z,67.50
2018-03-02T02:53:03.847Z,67.10
2018-03-02T02:55:31.143Z,67.10
2018-03-02T02:57:57.712Z,67.00
2018-03-02T03:00:24.230Z,66.70
2018-03-02T03:02:50.728Z,66.80
2018-03-02T03:05:17.215Z,66.70
2018-03-02T03:07:43.727Z,66.40
2018-03-02T03:10:10.293Z,66.50
2018-03-02T03:12:36.811Z,66.20
2018-03-02T03:15:03.338Z,66.20
2018-03-02T03:17:29.843Z,67.10
2018-03-02T03:19:56.326Z,66.50
2018-03-02T03:22:22.903Z,66.10
2018-03-02T03:24:49.399Z,66.20
2018-03-02T03:27:15.923Z,66.10
2018-03-02T03:29:42.410Z,66.10
2018-03-02T03:32:09.008Z,66.30
2018-03-02T03:34:35.577Z,66.60
2018-03-02T03:37:02.074Z,66.30
2018-03-02T03:39:28.554Z,66.30
2018-03-02T03:41:55.055Z,66.20
2018-03-02T03:44:21.603Z,66.30
2018-03-02T03:46:48.823Z,66.70
2018-03-02T03:49:15.341Z,66.60
2018-03-02T03:51:41.860Z,66.50
2018-03-02T03:54:08.376Z,66.10
2018-03-02T03:56:34.868Z,66.30
2018-03-02T03:59:02.155Z,67.40
2018-03-02T04:01:29.388Z,66.60
2018-03-02T04:03:55.980Z,66.50
2018-03-02T04:06:22.460Z,66.40
2018-03-02T04:08:48.951Z,66.30
2018-03-02T04:11:15.460Z,66.20
2018-03-02T04:13:41.964Z,66.50
2018-03-02T04:16:08.451Z,66.50
2018-03-02T04:18:34.921Z,66.60
2018-03-02T04:21:01.465Z,66.50
2018-03-02T04:23:27.970Z,66.70
2018-03-02T04:25:54.501Z,67.40
2018-03-02T04:28:21.012Z,66.70
2018-03-02T04:30:47.523Z,66.90
2018-03-02T04:33:14.759Z,66.80
2018-03-02T04:35:41.306Z,66.70
2018-03-02T04:38:08.663Z,66.40
2018-03-02T04:40:35.173Z,66.40
2018-03-02T04:43:01.673Z,66.70
2018-03-02T04:45:28.344Z,66.70
2018-03-02T04:47:54.835Z,66.80
2018-03-02T04:50:21.425Z,66.90
2018-03-02T04:52:47.937Z,67.20
2018-03-02T04:55:15.187Z,67.50
2018-03-02T04:57:41.666Z,67.00
2018-03-02T05:00:08.884Z,66.50
2018-03-02T05:02:35.396Z,66.10
2018-03-02T05:05:01.893Z,66.50
2018-03-02T05:07:29.141Z,66.00
2018-03-02T05:09:55.653Z,65.90
2018-03-02T05:12:22.175Z,66.00
2018-03-02T05:14:48.684Z,66.20
2018-03-02T05:17:15.210Z,66.20
2018-03-02T05:19:41.716Z,66.40
2018-03-02T05:22:08.958Z,66.50
2018-03-02T05:24:35.450Z,66.50
2018-03-02T05:27:01.938Z,66.60
2018-03-02T05:29:28.410Z,66.40
2018-03-02T05:31:54.938Z,66.20
2018-03-02T05:34:21.490Z,66.10
2018-03-02T05:36:48.026Z,66.00
2018-03-02T05:39:14.514Z,66.10
2018-03-02T05:41:41.724Z,65.60
2018-03-02T05:44:08.299Z,65.70
2018-03-02T05:46:35.581Z,66.20
2018-03-02T05:49:02.083Z,66.10
2018-03-02T05:51:28.622Z,65.70
2018-03-02T05:53:55.116Z,65.80
2018-03-02T05:56:21.624Z,65.40
2018-03-02T05:58:48.118Z,65.70
2018-03-02T06:01:14.642Z,65.60
2018-03-02T06:03:41.245Z,65.20
2018-03-02T06:06:07.758Z,65.00
2018-03-02T06:08:34.261Z,65.60
2018-03-02T06:11:00.751Z,65.60
2018-03-02T06:13:27.350Z,65.30
2018-03-02T06:15:53.910Z,65.50
2018-03-02T06:18:20.474Z,65.30
2018-03-02T06:20:47.036Z,65.20
2018-03-02T06:23:13.566Z,64.90
2018-03-02T06:25:40.038Z,64.80
2018-03-02T06:28:07.339Z,64.90
2018-03-02T06:30:33.877Z,64.90
2018-03-02T06:33:00.371Z,64.80
2018-03-02T06:35:26.905Z,65.10
2018-03-02T06:37:53.423Z,64.70
2018-03-02T06:40:19.943Z,64.60
2018-03-02T06:42:46.414Z,64.50
2018-03-02T06:45:12.919Z,64.40
2018-03-02T06:47:39.456Z,64.30
2018-03-02T06:50:06.691Z,63.70
2018-03-02T06:52:33.263Z,63.70
2018-03-02T06:54:59.756Z,63.70
2018-03-02T06:57:26.973Z,63.20
2018-03-02T06:59:53.452Z,63.20
2018-03-02T07:02:19.980Z,63.10
2018-03-02T07:04:46.467Z,62.90
2018-03-02T07:07:12.945Z,63.10
2018-03-02T07:09:39.513Z,62.90
2018-03-02T07:12:06.739Z,62.80
2018-03-02T07:14:33.213Z,62.60
2018-03-02T07:16:59.703Z,62.60
2018-03-02T07:19:26.177Z,62.60
2018-03-02T07:21:52.671Z,62.50
2018-03-02T07:24:19.189Z,63.20
2018-03-02T07:26:45.746Z,63.30
2018-03-02T07:29:12.228Z,63.40
2018-03-02T07:31:38.767Z,62.80
2018-03-02T07:34:05.276Z,62.70
2018-03-02T07:36:31.784Z,62.30
2018-03-02T07:38:59.106Z,62.60
2018-03-02T07:41:25.623Z,62.60
2018-03-02T07:43:52.135Z,62.70
2018-03-02T07:46:19.361Z,62.60
2018-03-02T07:48:45.917Z,62.50
2018-03-02T07:51:12.393Z,61.90
2018-03-02T07:53:38.893Z,61.60
2018-03-02T07:56:05.405Z,61.70
2018-03-02T07:58:31.906Z,61.30
2018-03-02T08:00:58.402Z,61.50
2018-03-02T08:03:25.676Z,61.10
2018-03-02T08:05:52.167Z,61.20
2018-03-02T08:08:18.684Z,61.40
2018-03-02T08:10:45.220Z,61.00
2018-03-02T08:13:11.755Z,60.70
2018-03-02T08:15:38.240Z,60.50
2018-03-02T08:18:06.484Z,59.10
2018-03-02T08:20:32.962Z,59.00
2018-03-02T08:22:59.485Z,58.40
2018-03-02T08:25:26.005Z,58.50
2018-03-02T08:27:52.565Z,58.30
2018-03-02T08:30:19.239Z,57.90
2018-03-02T08:32:45.737Z,58.00
2018-03-02T08:35:12.994Z,59.00
2018-03-02T08:37:40.211Z,57.80
2018-03-02T08:40:06.809Z,57.90
2018-03-02T08:42:33.341Z,57.50
2018-03-02T08:44:59.825Z,57.50
2018-03-02T08:47:26.405Z,58.20
2018-03-02T08:49:52.941Z,57.90
2018-03-02T08:52:19.437Z,57.20
2018-03-02T08:54:45.960Z,57.00
2018-03-02T08:57:13.958Z,56.40
2018-03-02T08:59:40.514Z,57.20
2018-03-02T09:02:07.010Z,56.50
2018-03-02T09:04:33.502Z,56.70
2018-03-02T09:06:59.989Z,57.10
2018-03-02T09:09:27.253Z,55.30
2018-03-02T09:11:53.774Z,55.50
2018-03-02T09:14:20.295Z,56.00
2018-03-02T09:16:46.800Z,56.40
2018-03-02T09:19:13.318Z,57.20
2018-03-02T09:21:39.797Z,57.00
2018-03-02T09:24:06.374Z,57.20
2018-03-02T09:26:33.674Z,57.70
2018-03-02T09:29:00.167Z,57.50
2018-03-02T09:31:26.710Z,58.10
2018-03-02T09:33:53.200Z,58.80
2018-03-02T09:36:19.716Z,58.70
2018-03-02T09:38:46.219Z,59.10
2018-03-02T09:41:12.702Z,58.80
2018-03-02T09:43:39.254Z,58.80
2018-03-02T09:46:06.295Z,59.00
2018-03-02T09:48:33.579Z,59.20
2018-03-02T09:51:00.063Z,59.00
2018-03-02T09:53:26.547Z,58.60
2018-03-02T09:55:53.023Z,58.90
2018-03-02T09:58:20.273Z,58.90
2018-03-02T10:00:46.790Z,58.90
2018-03-02T10:03:13.292Z,58.80
2018-03-02T10:05:39.782Z,59.10
2018-03-02T10:08:06.313Z,59.10
2018-03-02T10:10:32.812Z,59.70
2018-03-02T10:12:59.306Z,59.50
2018-03-02T10:15:25.818Z,59.80
2018-03-02T10:17:52.317Z,59.80
2018-03-02T10:20:18.792Z,59.80
2018-03-02T10:22:45.406Z,59.90
2018-03-02T10:25:11.900Z,59.60
2018-03-02T10:27:38.410Z,59.50
2018-03-02T10:30:04.959Z,59.50
2018-03-02T10:32:32.212Z,60.30
2018-03-02T10:34:59.654Z,60.70
2018-03-02T10:37:26.216Z,60.70
2018-03-02T10:39:52.702Z,60.50
2018-03-02T10:42:19.239Z,60.00
2018-03-02T10:44:45.796Z,60.00
2018-03-02T10:47:12.336Z,60.20
2018-03-02T10:49:38.857Z,61.40
2018-03-02T10:52:05.386Z,60.70
2018-03-02T10:54:31.896Z,61.30
2018-03-02T10:56:58.375Z,60.60
2018-03-02T10:59:24.933Z,60.30
2018-03-02T11:01:54.036Z,60.20
2018-03-02T11:04:20.538Z,60.20
2018-03-02T11:06:47.088Z,60.70
2018-03-02T11:09:13.718Z,60.00
2018-03-02T11:11:40.245Z,60.00
2018-03-02T11:14:06.863Z,59.90
2018-03-02T11:16:33.398Z,59.70
2018-03-02T11:18:59.881Z,59.50
2018-03-02T11:21:26.353Z,59.50
2018-03-02T11:23:52.865Z,60.50
2018-03-02T11:26:19.391Z,59.40
2018-03-02T11:28:45.916Z,59.40
2018-03-02T11:31:13.146Z,60.10
2018-03-02T11:33:39.631Z,60.10
2018-03-02T11:36:06.123Z,59.80
2018-03-02T11:38:32.636Z,59.80
2018-03-02T11:40:59.127Z,59.60
2018-03-02T11:43:25.634Z,59.10
2018-03-02T11:45:52.192Z,59.30
2018-03-02T11:48:18.693Z,58.90
2018-03-02T11:50:45.249Z,59.00
2018-03-02T11:53:12.632Z,58.70
2018-03-02T11:55:39.143Z,58.50
2018-03-02T11:58:06.426Z,59.80
2018-03-02T12:00:32.953Z,59.60
2018-03-02T12:02:59.466Z,58.90
2018-03-02T12:05:26.040Z,57.70
2018-03-02T12:07:52.530Z,57.50
2018-03-02T12:10:19.091Z,57.80
2018-03-02T12:12:45.647Z,57.70
2018-03-02T12:15:12.180Z,58.50
2018-03-02T12:17:38.674Z,58.50
2018-03-02T12:20:05.957Z,58.20
2018-03-02T12:22:32.446Z,58.10
2018-03-02T12:24:58.929Z,58.00
2018-03-02T12:27:25.457Z,58.40
2018-03-02T12:29:51.942Z,58.30
2018-03-02T12:32:18.484Z,58.90
2018-03-02T12:34:45.023Z,59.00
2018-03-02T12:37:11.672Z,58.70
2018-03-02T12:39:38.286Z,59.00
2018-03-02T12:42:05.573Z,58.90
2018-03-02T12:44:33.038Z,59.10
2018-03-02T12:47:00.649Z,59.10
2018-03-02T12:49:27.306Z,58.70
2018-03-02T12:51:53.902Z,58.70
2018-03-02T12:54:20.444Z,58.40
2018-03-02T12:56:46.965Z,57.70
2018-03-02T12:59:13.536Z,58.40
2018-03-02T13:01:40.216Z,58.30
2018-03-02T13:04:06.730Z,58.20
2018-03-02T13:06:33.361Z,57.90
2018-03-02T13:09:00.001Z,58.20
2018-03-02T13:11:26.512Z,57.70
2018-03-02T13:13:53.188Z,58.00
2018-03-02T13:16:19.736Z,57.70
2018-03-02T13:18:46.990Z,57.80
2018-03-02T13:21:13.594Z,57.60
2018-03-02T13:23:40.271Z,58.00
2018-03-02T13:26:07.692Z,58.40
2018-03-02T13:28:45.317Z,58.50
2018-03-02T13:31:11.933Z,59.60
2018-03-02T13:33:50.590Z,59.10
2018-03-02T13:36:17.264Z,58.20
2018-03-02T13:38:43.838Z,58.90
2018-03-02T13:41:22.475Z,58.20
2018-03-02T13:43:49.140Z,58.90
2018-03-02T13:46:15.874Z,58.50
2018-03-02T13:48:54.565Z,58.60
2018-03-02T13:51:21.105Z,57.70
2018-03-02T13:53:48.646Z,58.00
2018-03-02T13:56:27.234Z,57.90
2018-03-02T13:58:53.888Z,57.90
2018-03-02T14:01:20.366Z,58.30
2018-03-02T14:03:59.086Z,58.10
2018-03-02T14:06:26.598Z,58.50
2018-03-02T14:08:53.195Z,58.50
2018-03-02T14:11:19.804Z,58.70
2018-03-02T14:13:46.517Z,58.80
2018-03-02T14:16:13.075Z,58.10
2018-03-02T14:18:39.614Z,58.30
2018-03-02T14:21:06.365Z,58.70
2018-03-02T14:23:33.586Z,59.00
2018-03-02T14:26:00.089Z,58.90
2018-03-02T14:28:27.637Z,58.90
2018-03-02T14:30:54.296Z,58.90
2018-03-02T14:33:20.896Z,58.70
2018-03-02T14:35:48.295Z,58.40
2018-03-02T14:38:15.378Z,58.40
2018-03-02T14:40:41.951Z,58.40
2018-03-02T14:43:08.448Z,58.00
2018-03-02T14:45:34.966Z,57.90
2018-03-02T14:48:01.551Z,58.30
2018-03-02T14:50:28.036Z,58.50
2018-03-02T14:52:54.540Z,59.10
2018-03-02T14:55:21.124Z,58.90
2018-03-02T14:57:47.671Z,59.10
2018-03-02T15:00:14.166Z,59.30
2018-03-02T15:02:40.647Z,58.80
2018-03-02T15:05:07.159Z,59.10
2018-03-02T15:07:33.701Z,59.30
2018-03-02T15:10:00.209Z,59.40
2018-03-02T15:12:26.787Z,59.80
2018-03-02T15:14:53.321Z,59.80
2018-03-02T15:17:20.550Z,60.40
2018-03-02T15:19:47.099Z,60.20
2018-03-02T15:22:13.638Z,59.50
2018-03-02T15:24:40.187Z,58.30
2018-03-02T15:27:06.688Z,58.40
2018-03-02T15:29:33.211Z,59.30
2018-03-02T15:31:59.784Z,59.80
2018-03-02T15:34:26.292Z,60.80
2018-03-02T15:36:52.779Z,61.00
2018-03-02T15:39:19.322Z,60.50
2018-03-02T15:41:45.796Z,60.40
2018-03-02T15:44:12.380Z,60.20
2018-03-02T15:46:39.633Z,60.20
2018-03-02T15:49:06.934Z,60.80
2018-03-02T15:51:33.479Z,60.70
2018-03-02T15:54:00.029Z,60.20
2018-03-02T15:56:26.503Z,60.50
2018-03-02T15:58:53.007Z,61.00
2018-03-02T16:01:19.517Z,61.30
2018-03-02T16:03:45.986Z,61.20
2018-03-02T16:06:12.541Z,61.20
2018-03-02T16:08:39.073Z,61.20
2018-03-02T16:11:07.422Z,62.00
2018-03-02T16:13:33.930Z,61.30
2018-03-02T16:16:00.428Z,61.50
2018-03-02T16:18:27.082Z,61.10
2018-03-02T16:20:53.571Z,61.00
2018-03-02T16:23:20.819Z,61.00
2018-03-02T16:25:47.358Z,61.10
2018-03-02T16:28:14.002Z,61.40
2018-03-02T16:30:40.510Z,61.80
2018-03-02T16:33:07.106Z,61.80
2018-03-02T16:35:33.634Z,61.70
2018-03-02T16:38:00.858Z,61.30
2018-03-02T16:40:27.920Z,61.10
2018-03-02T16:42:55.302Z,61.50
2018-03-02T16:45:21.785Z,61.50
2018-03-02T16:47:48.273Z,61.20
2018-03-02T16:50:14.760Z,61.40
2018-03-02T16:52:41.257Z,61.40
2018-03-02T16:55:07.756Z,61.50
2018-03-02T16:57:34.275Z,62.00
2018-03-02T17:00:00.779Z,62.20
2018-03-02T17:02:27.346Z,62.30
2018-03-02T17:04:53.909Z,62.20
2018-03-02T17:07:20.389Z,62.70
2018-03-02T17:09:46.938Z,62.30
2018-03-02T17:12:13.444Z,62.30
2018-03-02T17:14:39.982Z,62.40
2018-03-02T17:17:07.223Z,62.40
2018-03-02T17:19:33.702Z,62.40
2018-03-02T17:22:00.204Z,62.70
2018-03-02T17:24:26.711Z,62.30
2018-03-02T17:26:53.206Z,62.50
2018-03-02T17:29:21.912Z,62.30
2018-03-02T17:31:49.158Z,63.10
2018-03-02T17:34:16.417Z,63.70
2018-03-02T17:36:43.709Z,63.80
2018-03-02T17:39:10.239Z,63.80
2018-03-02T17:41:36.764Z,63.60
2018-03-02T17:44:03.359Z,63.00
2018-03-02T17:46:29.826Z,63.00
2018-03-02T17:48:56.303Z,62.60
2018-03-02T17:51:22.798Z,63.00
2018-03-02T17:53:49.310Z,62.70
2018-03-02T17:56:16.533Z,62.50
2018-03-02T17:58:43.054Z,62.50
2018-03-02T18:01:09.551Z,63.40
2018-03-02T18:03:36.033Z,63.60
2018-03-02T18:06:02.550Z,63.70
2018-03-02T18:08:29.044Z,63.30
2018-03-02T18:10:55.657Z,63.80
2018-03-02T18:13:22.371Z,63.50
2018-03-02T18:15:48.945Z,63.50
2018-03-02T18:18:16.193Z,64.00
2018-03-02T18:20:42.702Z,64.00
2018-03-02T18:23:09.242Z,64.30
2018-03-02T18:25:35.746Z,64.00
2018-03-02T18:28:02.234Z,64.20
2018-03-02T18:30:28.773Z,64.40
2018-03-02T18:32:55.305Z,63.80
2018-03-02T18:35:21.914Z,64.30
2018-03-02T18:37:48.422Z,65.00
2018-03-02T18:40:14.949Z,65.00
2018-03-02T18:42:41.488Z,65.10
2018-03-02T18:45:08.799Z,65.50
2018-03-02T18:47:36.041Z,65.80
2018-03-02T18:50:02.643Z,65.40
2018-03-02T18:52:29.242Z,65.00
2018-03-02T18:54:56.550Z,64.50
2018-03-02T18:57:23.046Z,64.40
2018-03-02T18:59:49.539Z,64.50
2018-03-02T19:02:16.193Z,64.70
2018-03-02T19:04:42.731Z,66.00
2018-03-02T19:07:09.232Z,65.40
2018-03-02T19:09:35.750Z,65.80
2018-03-02T19:12:02.237Z,65.30
2018-03-02T19:14:28.723Z,65.70
2018-03-02T19:16:55.250Z,65.60
2018-03-02T19:19:21.783Z,65.50
2018-03-02T19:21:48.272Z,65.40
2018-03-02T19:24:14.765Z,65.70
2018-03-02T19:26:41.379Z,66.00
2018-03-02T19:29:07.852Z,65.50
2018-03-02T19:31:34.456Z,64.90
2018-03-02T19:34:00.992Z,65.20
2018-03-02T19:36:27.543Z,65.40
2018-03-02T19:38:54.028Z,65.60
2018-03-02T19:41:20.782Z,65.60
2018-03-02T19:43:47.379Z,66.00
2018-03-02T19:46:14.158Z,66.30
2018-03-02T19:48:40.989Z,66.20
2018-03-02T19:51:07.519Z,66.70
2018-03-02T19:53:33.980Z,66.90
2018-03-02T19:56:00.725Z,66.70
2018-03-02T19:58:27.552Z,67.10
2018-03-02T20:00:54.101Z,67.00
2018-03-02T20:03:20.590Z,66.80
2018-03-02T20:05:47.132Z,66.80
2018-03-02T20:08:13.728Z,66.40
2018-03-02T20:10:40.493Z,66.20
2018-03-02T20:13:07.089Z,66.70
2018-03-02T20:15:33.888Z,67.10
2018-03-02T20:18:01.208Z,67.10
2018-03-02T20:20:27.748Z,67.10
2018-03-02T20:22:54.291Z,66.80
2018-03-02T20:25:21.082Z,66.90
2018-03-02T20:27:47.914Z,66.70
2018-03-02T20:30:14.694Z,66.70
2018-03-02T20:32:42.349Z,67.30
2018-03-02T20:35:09.941Z,67.20
2018-03-02T20:37:36.496Z,68.20
2018-03-02T20:40:03.031Z,67.40
2018-03-02T20:42:29.526Z,67.50
2018-03-02T20:44:56.075Z,67.90
2018-03-02T20:47:22.659Z,67.80
2018-03-02T20:49:49.185Z,67.70
2018-03-02T20:52:15.709Z,68.00
2018-03-02T20:54:42.287Z,67.80
2018-03-02T20:57:09.566Z,67.90
2018-03-02T20:59:36.092Z,67.80
2018-03-02T21:02:02.569Z,67.70
2018-03-02T21:04:29.091Z,67.30
2018-03-02T21:06:55.600Z,67.50
2018-03-02T21:09:22.149Z,67.90
2018-03-02T21:11:48.647Z,67.80
2018-03-02T21:14:15.917Z,67.70
2018-03-02T21:16:42.417Z,67.70
2018-03-02T21:19:08.918Z,67.60
2018-03-02T21:21:35.421Z,67.50
2018-03-02T21:24:02.080Z,67.40
2018-03-02T21:26:28.664Z,67.60
2018-03-02T21:28:55.196Z,67.80
2018-03-02T21:31:21.732Z,67.90
2018-03-02T21:33:48.220Z,68.00
2018-03-02T21:36:14.725Z,68.20
2018-03-02T21:38:42.015Z,68.10
2018-03-02T21:41:08.521Z,68.00
2018-03-02T21:43:35.036Z,68.10
2018-03-02T21:46:02.277Z,68.00
2018-03-02T21:48:28.812Z,67.90
2018-03-02T21:50:55.322Z,67.70
2018-03-02T21:53:21.794Z,67.30
2018-03-02T21:55:49.083Z,67.60
2018-03-02T21:58:15.626Z,67.60
2018-03-02T22:00:42.209Z,67.80
2018-03-02T22:03:08.709Z,67.80
2018-03-02T22:05:35.234Z,67.70
2018-03-02T22:08:01.771Z,68.00
2018-03-02T22:10:28.264Z,67.80
2018-03-02T22:12:55.574Z,67.90
2018-03-02T22:15:22.095Z,67.80
2018-03-02T22:17:49.345Z,67.70
2018-03-02T22:20:15.830Z,67.60
2018-03-02T22:22:42.315Z,67.60
2018-03-02T22:25:08.832Z,67.70
2018-03-02T22:27:35.369Z,67.80
2018-03-02T22:30:01.928Z,67.70
2018-03-02T22:32:28.419Z,67.70
2018-03-02T22:34:54.931Z,67.80
2018-03-02T22:37:21.468Z,67.90
2018-03-02T22:39:47.970Z,68.10
2018-03-02T22:42:14.444Z,68.20
2018-03-02T22:44:41.707Z,68.10
2018-03-02T22:47:08.191Z,68.00
2018-03-02T22:49:34.741Z,67.80
2018-03-02T22:52:01.232Z,67.80
2018-03-02T22:54:27.761Z,68.00
2018-03-02T22:56:54.251Z,68.40
2018-03-02T22:59:20.802Z,67.70
2018-03-02T23:01:47.303Z,67.30
2018-03-02T23:04:13.823Z,67.30
2018-03-02T23:06:40.329Z,67.10
2018-03-02T23:09:07.582Z,67.50
2018-03-02T23:11:34.087Z,67.30
2018-03-02T23:14:00.558Z,67.50
2018-03-02T23:16:27.089Z,67.60
2018-03-02T23:18:53.629Z,67.60
2018-03-02T23:21:20.196Z,67.70
2018-03-02T23:23:46.697Z,67.60
2018-03-02T23:26:13.916Z,67.90
2018-03-02T23:28:40.414Z,67.90
2018-03-02T23:31:06.911Z,67.70
2018-03-02T23:33:33.405Z,67.60
2018-03-02T23:36:00.010Z,67.40
2018-03-02T23:38:26.486Z,68.30
2018-03-02T23:40:52.970Z,67.80
2018-03-02T23:43:19.548Z,67.50
2018-03-02T23:45:46.017Z,67.20
2018-03-02T23:48:13.268Z,67.80
2018-03-02T23:50:39.840Z,67.70
2018-03-02T23:53:06.323Z,67.40
2018-03-02T23:55:32.806Z,66.90
2018-03-02T23:57:59.311Z,67.10
